Time;durP1;ratioP1;P1;durP2;ratioP2;P2;SDS_P1;SDS_P2;PMS_P1;PMS_P2;Temp;Humidity;BMP_temperature;BMP_pressure;BME280_temperature;BME280_humidity;BME280_pressure;Samples;Min_cycle;Max_cycle;Signal;HPM_P1;HPM_P2
2021/10/10 00:01:05;;;;;;;1999.90;999.90;;;;;;;9.50;100.00;100144.06;4973263;28;20417;-46
2021/10/10 00:03:31;;;;;;;1999.90;999.90;;;;;;;9.50;100.00;100146.72;4973039;28;20047;-45
2021/10/10 00:05:57;;;;;;;1999.90;999.90;;;;;;;9.51;100.00;100141.19;4973221;28;20096;-46
2021/10/10 00:08:22;;;;;;;1999.90;999.90;;;;;;;9.46;100.00;100133.09;4972869;28;20027;-46
2021/10/10 00:10:48;;;;;;;1999.90;999.90;;;;;;;9.38;100.00;100144.03;4973179;28;20061;-46
2021/10/10 00:13:15;;;;;;;1999.90;999.90;;;;;;;9.35;100.00;100142.66;4973473;28;20037;-46
2021/10/10 00:15:41;;;;;;;1999.90;999.90;;;;;;;9.38;100.00;100136.88;4973189;28;20027;-46
2021/10/10 00:18:06;;;;;;;1999.90;999.90;;;;;;;9.37;100.00;100137.91;4973094;28;20455;-46
2021/10/10 00:20:32;;;;;;;1999.90;999.90;;;;;;;9.34;100.00;100127.72;4973131;28;20101;-46
2021/10/10 00:22:58;;;;;;;1999.90;999.90;;;;;;;9.32;100.00;100123.66;4972980;28;20513;-46
2021/10/10 00:25:24;;;;;;;1999.90;999.90;;;;;;;9.32;100.00;100123.66;4973140;28;20027;-46
2021/10/10 00:27:50;;;;;;;1999.90;999.90;;;;;;;9.28;100.00;100123.31;4973862;28;20030;-46
2021/10/10 00:30:17;;;;;;;1999.90;999.90;;;;;;;9.26;100.00;100123.53;4973025;28;20094;-46
2021/10/10 00:32:43;;;;;;;1999.90;999.90;;;;;;;9.24;100.00;100114.16;4972894;28;20035;-46
2021/10/10 00:35:09;;;;;;;1999.90;999.90;;;;;;;9.25;100.00;100121.91;4973287;28;20077;-46
2021/10/10 00:37:35;;;;;;;1999.90;999.90;;;;;;;9.27;100.00;100127.78;4972876;28;20066;-46
2021/10/10 00:40:01;;;;;;;1999.90;999.90;;;;;;;9.28;100.00;100115.31;4972979;28;20486;-47
2021/10/10 00:42:27;;;;;;;1999.90;999.90;;;;;;;9.25;100.00;100116.56;4973099;28;20031;-46
2021/10/10 00:44:52;;;;;;;1999.90;999.90;;;;;;;9.24;100.00;100119.47;4972846;28;20026;-49
2021/10/10 00:47:18;;;;;;;1999.90;999.90;;;;;;;9.21;100.00;100123.38;4972889;28;20030;-46
2021/10/10 00:49:44;;;;;;;1999.90;999.90;;;;;;;9.19;100.00;100117.47;4972869;28;20106;-45
2021/10/10 00:52:15;;;;;;;1999.90;999.90;;;;;;;9.22;100.00;100127.66;4972779;28;20031;-46
2021/10/10 00:54:46;;;;;;;1999.90;999.90;;;;;;;9.19;100.00;100116.66;4973157;28;20102;-46
2021/10/10 00:57:13;;;;;;;1999.90;999.90;;;;;;;9.18;100.00;100121.16;4973092;28;20394;-47
2021/10/10 00:59:43;;;;;;;1999.90;999.90;;;;;;;9.18;100.00;100121.16;4972750;28;20027;-46
2021/10/10 01:02:09;;;;;;;1999.90;999.90;;;;;;;9.18;100.00;100117.69;4972338;28;20031;-46
2021/10/10 01:04:34;;;;;;;1999.90;999.90;;;;;;;9.21;100.00;100114.59;4972986;28;20019;-46
2021/10/10 01:07:00;;;;;;;1999.90;999.90;;;;;;;9.15;100.00;100108.31;4972684;28;20486;-46
2021/10/10 01:09:27;;;;;;;1999.90;999.90;;;;;;;9.13;100.00;100106.91;4972654;28;20082;-45
2021/10/10 01:11:53;;;;;;;1999.90;999.90;;;;;;;9.13;100.00;100105.06;4972609;28;20034;-46
2021/10/10 01:14:19;;;;;;;1999.90;999.90;;;;;;;9.12;100.00;100106.13;4972649;28;20027;-47
2021/10/10 01:16:45;;;;;;;1999.90;999.90;;;;;;;9.07;100.00;100097.97;4972864;28;20027;-46
2021/10/10 01:19:11;;;;;;;1999.90;999.90;;;;;;;9.06;100.00;100099.03;4972637;28;20406;-46
2021/10/10 01:21:36;;;;;;;1999.90;999.90;;;;;;;9.08;100.00;100097.75;4974441;28;20081;-46
2021/10/10 01:24:04;;;;;;;1999.90;999.90;;;;;;;9.05;100.00;100103.53;4976109;28;20457;-46
2021/10/10 01:26:31;;;;;;;1999.90;999.90;;;;;;;9.07;100.00;100092.66;4976025;28;20553;-46
2021/10/10 01:28:57;;;;;;;1999.90;999.90;;;;;;;9.07;100.00;100092.66;4975819;28;20031;-45
2021/10/10 01:31:23;;;;;;;1999.90;999.90;;;;;;;9.11;100.00;100096.50;4975936;28;20034;-45
2021/10/10 01:33:49;;;;;;;1999.90;999.90;;;;;;;9.12;100.00;100103.47;4976186;28;20019;-46
2021/10/10 01:36:15;;;;;;;1999.90;999.90;;;;;;;9.12;100.00;100095.47;4976130;28;20026;-46
2021/10/10 01:38:41;;;;;;;;;;;;;;;9.09;100.00;100095.94;4976555;28;20105;-46
2021/10/10 01:41:08;;;;;;;1999.90;999.90;;;;;;;9.09;100.00;100096.72;4975743;28;19920;-46
2021/10/10 01:43:34;;;;;;;1999.90;999.90;;;;;;;9.06;100.00;100101.69;4975983;28;20050;-46
2021/10/10 01:46:00;;;;;;;1999.90;999.90;;;;;;;9.05;100.00;100108.03;4975997;28;20038;-46
2021/10/10 01:48:26;;;;;;;1999.90;999.90;;;;;;;9.06;100.00;100109.66;4975622;28;20034;-45
2021/10/10 01:50:51;;;;;;;1999.90;999.90;;;;;;;9.01;100.00;100099.69;4975630;28;20081;-45
2021/10/10 01:53:17;;;;;;;1999.90;999.90;;;;;;;9.03;100.00;100102.13;4975505;28;20041;-46
2021/10/10 01:55:44;;;;;;;1999.90;999.90;;;;;;;9.03;100.00;100102.94;4975512;28;20106;-45
2021/10/10 01:58:13;;;;;;;1999.90;999.90;;;;;;;8.99;100.00;100101.78;4975473;28;20093;-46
2021/10/10 02:00:39;;;;;;;1999.90;999.90;;;;;;;9.01;100.00;100093.56;4975693;28;20434;-45
2021/10/10 02:03:05;;;;;;;1999.90;999.90;;;;;;;9.00;100.00;100094.59;4974939;28;20054;-46
2021/10/10 02:05:31;;;;;;;1999.90;999.90;;;;;;;8.99;100.00;100093.00;4975375;28;20035;-46
2021/10/10 02:07:57;;;;;;;1999.90;999.90;;;;;;;8.98;100.00;100094.00;4975293;28;20027;-46
2021/10/10 02:10:23;;;;;;;1999.90;999.90;;;;;;;9.02;100.00;100097.84;4975278;28;20041;-46
2021/10/10 02:12:49;;;;;;;1999.90;999.90;;;;;;;9.03;100.00;100100.28;4975121;28;20097;-46
2021/10/10 02:15:16;;;;;;;1999.90;999.90;;;;;;;9.03;100.00;100099.47;4975185;28;20027;-46
2021/10/10 02:17:41;;;;;;;;;;;;;;;9.00;100.00;100089.28;4975550;28;20034;-46
2021/10/10 02:20:09;;;;;;;1999.90;999.90;;;;;;;8.97;100.00;100093.22;4975335;28;19914;-46
2021/10/10 02:22:35;;;;;;;1999.90;999.90;;;;;;;8.99;100.00;100090.34;4974839;28;20495;-45
2021/10/10 02:25:01;;;;;;;1999.90;999.90;;;;;;;8.96;100.00;100088.94;4975038;28;20035;-45
2021/10/10 02:27:26;;;;;;;1999.90;999.90;;;;;;;8.99;100.00;100079.69;4974912;28;20089;-46
2021/10/10 02:29:52;;;;;;;1999.90;999.90;;;;;;;8.99;100.00;100096.44;4974899;28;20042;-47
2021/10/10 02:32:18;;;;;;;1999.90;999.90;;;;;;;8.98;100.00;100091.34;4974402;28;20078;-47
2021/10/10 02:34:44;;;;;;;1999.90;999.90;;;;;;;8.96;100.00;100093.44;4974811;28;20081;-47
2021/10/10 02:37:10;;;;;;;;;;;;;;;8.92;100.00;100087.75;4975494;28;20422;-46
2021/10/10 02:39:37;;;;;;;1999.90;999.90;;;;;;;8.92;100.00;100090.41;4974647;28;19921;-46
2021/10/10 02:42:04;;;;;;;1999.90;999.90;;;;;;;8.91;100.00;100088.75;4974566;28;20035;-46
2021/10/10 02:44:30;;;;;;;1999.90;999.90;;;;;;;8.93;100.00;100089.38;4974609;28;20035;-47
2021/10/10 02:46:56;;;;;;;1999.90;999.90;;;;;;;8.95;100.00;100086.50;4974617;28;20035;-45
2021/10/10 02:49:21;;;;;;;1999.90;999.90;;;;;;;8.94;100.00;100085.66;4974541;28;20031;-45
2021/10/10 02:51:47;;;;;;;1999.90;999.90;;;;;;;9.01;100.00;100089.06;4974517;28;20037;-46
2021/10/10 02:54:13;;;;;;;1999.90;999.90;;;;;;;9.05;100.00;100092.09;4974400;28;20266;-47
2021/10/10 02:56:39;;;;;;;1999.90;999.90;;;;;;;9.07;100.00;100095.31;4973226;28;20035;-46
2021/10/10 02:59:04;;;;;;;1999.90;999.90;;;;;;;9.10;100.00;100087.72;4974342;28;20018;-46
2021/10/10 03:01:30;;;;;;;1999.90;999.90;;;;;;;9.14;100.00;100090.75;4974237;28;20026;-45
2021/10/10 03:03:56;;;;;;;1999.90;999.90;;;;;;;9.10;100.00;100093.03;4973961;28;20050;-45
2021/10/10 03:06:21;;;;;;;1999.90;999.90;;;;;;;9.20;100.00;100092.50;4974154;28;20035;-46
2021/10/10 03:08:47;;;;;;;1999.90;999.90;;;;;;;9.22;100.00;100087.78;4974205;28;20030;-46
2021/10/10 03:11:13;;;;;;;1999.90;999.90;;;;;;;9.22;100.00;100093.09;4974088;28;20082;-46
2021/10/10 03:13:39;;;;;;;1999.90;999.90;;;;;;;9.22;100.00;100087.78;4974351;28;20109;-46
2021/10/10 03:16:05;;;;;;;1999.90;999.90;;;;;;;9.25;100.00;100091.84;4974075;28;20513;-45
2021/10/10 03:18:30;;;;;;;1999.90;999.90;;;;;;;9.31;100.00;100084.78;4973916;28;20030;-46
2021/10/10 03:20:56;;;;;;;1999.90;999.90;;;;;;;9.28;100.00;100092.19;4973932;28;20278;-47
2021/10/10 03:23:23;;;;;;;1999.90;999.90;;;;;;;9.32;100.00;100091.72;4974051;28;20114;-47
2021/10/10 03:25:48;;;;;;;1999.90;999.90;;;;;;;9.37;100.00;100090.03;4973821;28;20039;-46
2021/10/10 03:28:14;;;;;;;1999.90;999.90;;;;;;;9.43;100.00;100094.44;4973845;28;20083;-45
2021/10/10 03:30:40;;;;;;;1999.90;999.90;;;;;;;9.42;100.00;100103.44;4973735;28;20122;-45
2021/10/10 03:33:06;;;;;;;1999.90;999.90;;;;;;;9.43;100.00;100099.75;4973724;28;20070;-46
2021/10/10 03:35:31;;;;;;;1999.90;999.90;;;;;;;9.47;100.00;100097.47;4974000;28;20031;-46
2021/10/10 03:37:57;;;;;;;1999.90;999.90;;;;;;;9.51;100.00;100100.47;4973721;28;20066;-45
2021/10/10 03:40:23;;;;;;;1999.90;999.90;;;;;;;9.55;100.00;100099.78;4973639;28;20081;-45
2021/10/10 03:42:49;;;;;;;1999.90;999.90;;;;;;;9.52;100.00;100097.59;4973375;28;20062;-44
2021/10/10 03:45:14;;;;;;;1999.90;999.90;;;;;;;9.52;100.00;100105.56;4972925;28;20031;-46
2021/10/10 03:47:41;;;;;;;1999.90;999.90;;;;;;;9.47;100.00;100105.44;4973517;28;20093;-46
2021/10/10 03:50:07;;;;;;;;;;;;;;;9.45;100.00;100103.03;4973858;28;20391;-44
2021/10/10 03:52:32;;;;;;;1999.90;999.90;;;;;;;9.38;100.00;100104.97;4973439;28;19945;-42
2021/10/10 03:57:42;;;;;;;1999.90;999.90;;;;;;;9.35;100.00;100109.91;4973475;28;20495;-42
2021/10/10 04:00:12;;;;;;;1999.90;999.90;;;;;;;9.33;100.00;100111.97;4973389;28;20038;-42
2021/10/10 04:02:38;;;;;;;1999.90;999.90;;;;;;;9.29;100.00;100111.59;4972883;28;20537;-42
2021/10/10 04:05:16;;;;;;;1999.90;999.90;;;;;;;9.31;100.00;100112.22;4973252;28;20051;-42
2021/10/10 04:07:41;;;;;;;1999.90;999.90;;;;;;;9.22;100.00;100111.72;4973516;28;20122;-41
2021/10/10 04:10:08;;;;;;;1999.90;999.90;;;;;;;9.26;100.00;100118.22;4973865;28;20114;-42
2021/10/10 04:12:33;;;;;;;1999.90;999.90;;;;;;;9.24;100.00;100117.59;4973523;28;20023;-42
2021/10/10 04:14:59;;;;;;;1999.90;999.90;;;;;;;9.20;100.00;100119.09;4973096;28;20109;-42
2021/10/10 04:17:24;;;;;;;1999.90;999.90;;;;;;;9.20;100.00;100116.41;4973226;28;20059;-42
2021/10/10 04:19:50;;;;;;;1999.90;999.90;;;;;;;9.21;100.00;100115.41;4973162;28;20035;-41
2021/10/10 04:22:16;;;;;;;1999.90;999.90;;;;;;;9.25;100.00;100116.56;4973359;28;20114;-41
2021/10/10 04:24:41;;;;;;;1999.90;999.90;;;;;;;9.29;100.00;100119.59;4973088;28;20546;-41
2021/10/10 04:27:07;;;;;;;1999.90;999.90;;;;;;;9.28;100.00;100120.66;4973087;28;20049;-42
2021/10/10 04:29:33;;;;;;;1999.90;999.90;;;;;;;9.34;100.00;100127.72;4973018;28;20077;-43
2021/10/10 04:31:59;;;;;;;1999.90;999.90;;;;;;;9.36;100.00;100117.66;4973310;28;20069;-42
2021/10/10 04:34:24;;;;;;;1999.90;999.90;;;;;;;9.37;100.00;100116.63;4972961;28;20030;-41
2021/10/10 04:36:50;;;;;;;1999.90;999.90;;;;;;;9.38;100.00;100114.75;4973008;28;20018;-41
2021/10/10 04:39:16;;;;;;;1999.90;999.90;;;;;;;9.38;100.00;100117.44;4973539;28;20034;-39
2021/10/10 04:41:41;;;;;;;1999.90;999.90;;;;;;;9.37;100.00;100121.16;4973225;28;20406;-41
2021/10/10 04:44:07;;;;;;;1999.90;999.90;;;;;;;9.35;100.00;100117.88;4972880;28;20262;-40
2021/10/10 04:46:33;;;;;;;1999.90;999.90;;;;;;;9.34;100.00;100110.94;4972850;28;20035;-40
2021/10/10 04:48:59;;;;;;;1999.90;999.90;;;;;;;9.29;100.00;100114.25;4972882;28;20038;-41
2021/10/10 04:51:24;;;;;;;1999.90;999.90;;;;;;;9.32;100.00;100108.50;4973193;28;20038;-39
2021/10/10 04:53:50;;;;;;;1999.90;999.90;;;;;;;9.33;100.00;100117.31;4972764;28;20465;-42
2021/10/10 04:56:16;;;;;;;1999.90;999.90;;;;;;;9.35;100.00;100115.22;4975717;28;20050;-42
2021/10/10 04:58:41;;;;;;;1999.90;999.90;;;;;;;9.39;100.00;100117.19;4976848;28;20048;-42
2021/10/10 05:01:07;;;;;;;1999.90;999.90;;;;;;;9.42;100.00;100113.28;4976586;28;20502;-42
2021/10/10 05:03:34;;;;;;;1999.90;999.90;;;;;;;9.37;100.00;100115.81;4976089;28;20046;-43
2021/10/10 05:05:59;;;;;;;1999.90;999.90;;;;;;;9.34;100.00;100116.25;4977194;28;20462;-42
2021/10/10 05:08:25;;;;;;;1999.90;999.90;;;;;;;9.35;100.00;100121.38;4976337;28;20026;-42
2021/10/10 05:10:51;;;;;;;1999.90;999.90;;;;;;;9.40;100.00;100126.00;4976389;28;20039;-42
2021/10/10 05:13:16;;;;;;;1999.90;999.90;;;;;;;9.37;100.00;100127.25;4976206;28;20070;-42
2021/10/10 05:15:42;;;;;;;1999.90;999.90;;;;;;;9.36;100.00;100122.16;4976261;28;20062;-42
2021/10/10 05:18:08;;;;;;;1999.90;999.90;;;;;;;9.27;100.00;100127.78;4976844;28;20062;-43
2021/10/10 05:20:33;;;;;;;1999.90;999.90;;;;;;;9.34;100.00;100134.88;4976178;28;20105;-42
2021/10/10 05:22:59;;;;;;;1999.90;999.90;;;;;;;9.35;100.00;100128.50;4976072;28;20073;-41
2021/10/10 05:25:25;;;;;;;1999.90;999.90;;;;;;;9.35;100.00;100128.50;4976046;28;20035;-42
2021/10/10 05:27:51;;;;;;;1999.90;999.90;;;;;;;9.39;100.00;100130.50;4976392;28;20037;-43
2021/10/10 05:30:16;;;;;;;1999.90;999.90;;;;;;;9.37;100.00;100137.91;4976951;28;20058;-42
2021/10/10 05:32:42;;;;;;;1999.90;999.90;;;;;;;9.33;100.00;100134.06;4975090;28;20406;-42
2021/10/10 05:35:08;;;;;;;1999.90;999.90;;;;;;;9.39;100.00;100140.34;4975900;28;20482;-42
2021/10/10 05:37:33;;;;;;;1999.90;999.90;;;;;;;9.43;100.00;100137.00;4976956;28;20028;-42
2021/10/10 05:39:59;;;;;;;1999.90;999.90;;;;;;;9.48;100.00;100141.63;4976121;28;20395;-42
2021/10/10 05:42:25;;;;;;;1999.90;999.90;;;;;;;9.50;100.00;100138.75;4975757;28;20400;-42
2021/10/10 05:44:50;;;;;;;1999.90;999.90;;;;;;;9.53;100.00;100139.13;4975629;28;20026;-42
2021/10/10 05:47:16;;;;;;;1999.90;999.90;;;;;;;9.59;100.00;100142.75;4975848;28;20035;-42
2021/10/10 05:49:42;;;;;;;1999.90;999.90;;;;;;;9.62;100.00;100147.59;4975659;28;20038;-42
2021/10/10 05:52:08;;;;;;;1999.90;999.90;;;;;;;9.70;100.00;100144.59;4975940;28;20035;-42
2021/10/10 05:54:36;;;;;;;;;;;;;;;9.67;100.00;100144.25;4975949;28;20041;-42
2021/10/10 05:57:06;;;;;;;1999.90;999.90;;;;;;;9.71;100.00;100150.75;4975377;28;19918;-42
2021/10/10 05:59:34;;;;;;;1999.90;999.90;;;;;;;9.71;100.00;100142.78;4975320;28;20050;-42
2021/10/10 06:02:03;;;;;;;1999.90;999.90;;;;;;;9.73;100.00;100146.81;4975330;28;20022;-42
2021/10/10 06:04:28;;;;;;;1999.90;999.90;;;;;;;9.76;100.00;100145.56;4975491;28;20078;-42
2021/10/10 06:06:54;;;;;;;1999.90;999.90;;;;;;;9.80;100.00;100142.19;4974685;28;20109;-42
2021/10/10 06:09:20;;;;;;;1999.90;999.90;;;;;;;9.82;100.00;100144.63;4975307;28;20031;-42
2021/10/10 06:11:46;;;;;;;1999.90;999.90;;;;;;;9.83;100.00;100148.13;4975563;28;20030;-42
2021/10/10 06:14:12;;;;;;;1999.90;999.90;;;;;;;9.85;100.00;100141.53;4975502;28;20066;-42
2021/10/10 06:16:38;;;;;;;1999.90;999.90;;;;;;;9.92;100.00;100144.09;4975155;28;20030;-42
2021/10/10 06:19:04;;;;;;;1999.90;999.90;;;;;;;10.01;100.00;100148.03;4975463;28;20042;-42
2021/10/10 06:21:31;;;;;;;1999.90;999.90;;;;;;;10.05;100.00;100145.75;4975029;28;20114;-42
2021/10/10 06:23:57;;;;;;;1999.90;999.90;;;;;;;10.07;100.00;100138.31;4975069;28;20030;-42
2021/10/10 06:26:24;;;;;;;1999.90;999.90;;;;;;;10.15;100.00;100135.34;4975586;28;20525;-42
2021/10/10 06:28:50;;;;;;;;;;;;;;;10.13;100.00;100140.06;4975388;28;20118;-42
2021/10/10 06:31:16;;;;;;;1999.90;999.90;;;;;;;10.21;100.00;100141.59;4973742;28;19949;-42
2021/10/10 06:33:42;;;;;;;1999.90;999.90;;;;;;;10.22;100.00;100140.53;4975212;28;20574;-43
2021/10/10 06:36:08;;;;;;;1999.90;999.90;;;;;;;10.31;100.00;100142.63;4974728;28;20125;-42
2021/10/10 06:38:33;;;;;;;1999.90;999.90;;;;;;;10.39;100.00;100144.16;4975092;28;20031;-43
2021/10/10 06:40:59;;;;;;;1999.90;999.90;;;;;;;10.47;100.00;100146.50;4974759;28;20387;-42
2021/10/10 06:43:25;;;;;;;1999.90;999.90;;;;;;;10.56;100.00;100149.63;4974582;28;20097;-42
2021/10/10 06:45:50;;;;;;;1999.90;999.90;;;;;;;10.62;100.00;100145.22;4974622;28;20082;-42
2021/10/10 06:48:16;;;;;;;1999.90;999.90;;;;;;;10.65;100.00;100140.22;4974901;28;20391;-42
2021/10/10 06:50:42;;;;;;;1999.90;999.90;;;;;;;10.69;100.00;100137.91;4974543;28;20101;-42
2021/10/10 06:53:08;;;;;;;1999.90;999.90;;;;;;;10.71;100.00;100143.81;4974498;28;20031;-42
2021/10/10 06:55:33;;;;;;;1999.90;999.90;;;;;;;10.72;100.00;100145.44;4974355;28;20026;-42
2021/10/10 06:57:59;;;;;;;1999.90;999.90;;;;;;;10.76;100.00;100148.44;4974381;28;20035;-42
2021/10/10 07:00:25;;;;;;;1999.90;999.90;;;;;;;10.79;100.00;100138.13;4974395;28;20110;-42
2021/10/10 07:02:50;;;;;;;1999.90;999.90;;;;;;;10.85;100.00;100136.41;4974148;28;20093;-42
2021/10/10 07:05:18;;;;;;;1999.90;999.90;;;;;;;10.95;100.00;100141.09;4974191;28;20487;-42
2021/10/10 07:07:44;;;;;;;1999.90;999.90;;;;;;;10.81;100.00;100145.91;4974532;28;20527;-42
2021/10/10 07:10:10;;;;;;;1999.90;999.90;;;;;;;10.84;100.00;100146.22;4974157;28;20038;-42
2021/10/10 07:12:37;;;;;;;1999.90;999.90;;;;;;;10.72;100.00;100150.78;4974090;28;20062;-43
2021/10/10 07:15:04;;;;;;;1999.90;999.90;;;;;;;10.71;100.00;100143.00;4974007;28;20033;-42
2021/10/10 07:17:30;;;;;;;1999.90;999.90;;;;;;;10.79;100.00;100139.97;4974022;28;20110;-42
2021/10/10 07:20:07;;;;;;;1999.90;999.90;;;;;;;10.87;100.00;100147.63;4974194;28;20069;-42
2021/10/10 07:22:45;;;;;;;1999.90;999.90;;;;;;;10.86;100.00;100146.00;4974692;28;20043;-42
2021/10/10 07:25:11;;;;;;;1999.90;999.90;;;;;;;10.82;100.00;100136.84;4973805;28;20033;-42
2021/10/10 07:27:44;;;;;;;1999.90;999.90;;;;;;;10.93;100.00;100138.69;4973893;28;20480;-43
2021/10/10 07:30:13;;;;;;;1999.90;999.90;;;;;;;10.96;100.00;100138.19;4974119;28;20409;-42
2021/10/10 07:32:39;;;;;;;1999.90;999.90;;;;;;;11.07;100.00;100138.41;4974061;28;20035;-42
2021/10/10 07:35:06;;;;;;;1999.90;999.90;;;;;;;11.00;100.00;100138.56;4973816;28;20494;-42
2021/10/10 07:37:32;;;;;;;1999.90;999.90;;;;;;;11.03;100.00;100140.75;4973894;28;20468;-42
2021/10/10 07:39:58;;;;;;;1999.90;999.90;;;;;;;11.15;100.00;100135.38;4973666;28;20023;-42
2021/10/10 07:42:24;;;;;;;1999.90;999.90;;;;;;;11.19;100.00;100137.34;4973566;28;20074;-42
2021/10/10 07:44:53;;;;;;;1999.90;999.90;;;;;;;11.21;100.00;100129.09;4973587;28;20038;-42
2021/10/10 07:49:50;;;;;;;1999.90;999.90;;;;;;;11.36;100.00;100139.25;4973497;28;20031;-42
2021/10/10 07:52:17;;;;;;;1999.90;999.90;;;;;;;11.42;100.00;100129.47;4973507;28;20110;-42
2021/10/10 07:54:43;;;;;;;1999.90;999.90;;;;;;;11.46;100.00;100141.31;4973326;28;20039;-43
2021/10/10 07:57:10;;;;;;;1999.90;999.90;;;;;;;11.51;100.00;100136.03;4973626;28;20043;-42
2021/10/10 07:59:36;;;;;;;1999.90;999.90;;;;;;;11.56;100.00;100136.94;4973375;28;20031;-42
2021/10/10 08:02:02;;;;;;;1999.90;999.90;;;;;;;11.61;100.00;100133.56;4973271;28;20077;-42
2021/10/10 08:04:28;;;;;;;1999.90;999.90;;;;;;;11.67;100.00;100126.47;4973085;28;20061;-43
2021/10/10 08:06:55;;;;;;;1999.90;999.90;;;;;;;11.55;100.00;100134.53;4973248;28;20038;-42
2021/10/10 08:09:21;;;;;;;1999.90;999.90;;;;;;;11.50;100.00;100137.13;4973536;28;20037;-42
2021/10/10 08:11:47;;;;;;;1999.90;999.90;;;;;;;11.56;100.00;100134.28;4973227;28;20100;-42
2021/10/10 08:14:13;;;;;;;1999.90;999.90;;;;;;;11.49;100.00;100133.63;4973229;28;20030;-42
2021/10/10 08:16:41;;;;;;;1999.90;999.90;;;;;;;11.57;100.00;100137.78;4973071;28;20038;-42
2021/10/10 08:19:07;;;;;;;1999.90;999.90;;;;;;;11.59;100.00;100141.00;4973516;28;20049;-42
2021/10/10 08:21:34;;;;;;;1999.90;999.90;;;;;;;11.63;100.00;100141.31;4973340;28;20093;-42
2021/10/10 08:24:01;;;;;;;1999.90;999.90;;;;;;;11.67;100.00;100137.97;4973432;28;20039;-43
2021/10/10 08:26:28;;;;;;;1999.90;999.90;;;;;;;11.56;100.00;100142.28;4973330;28;20053;-42
2021/10/10 08:28:54;;;;;;;1999.90;999.90;;;;;;;11.55;100.00;100137.19;4973578;28;20110;-42
2021/10/10 08:31:20;;;;;;;1999.90;999.90;;;;;;;11.57;100.00;100132.44;4976560;28;20452;-42
2021/10/10 08:33:45;;;;;;;1999.90;999.90;;;;;;;11.56;100.00;100122.81;4977022;28;20113;-42
2021/10/10 08:36:11;;;;;;;1999.90;999.90;;;;;;;11.53;100.00;100115.28;4975766;28;20038;-42
2021/10/10 08:38:37;;;;;;;1999.90;999.90;;;;;;;11.56;100.00;100110.25;4977295;28;20039;-42
2021/10/10 08:41:04;;;;;;;1999.90;999.90;;;;;;;11.66;100.00;100117.66;4976924;28;20097;-42
2021/10/10 08:43:32;;;;;;;1999.90;999.90;;;;;;;11.63;100.00;100119.97;4977101;28;20066;-42
2021/10/10 08:46:03;;;;;;;1999.90;999.90;;;;;;;11.68;100.00;100126.22;4976752;28;20027;-43
2021/10/10 08:48:30;;;;;;;1999.90;999.90;;;;;;;11.69;100.00;100127.84;4976647;28;20043;-42
2021/10/10 08:50:57;;;;;;;1999.90;999.90;;;;;;;11.72;100.00;100129.22;4977133;28;20109;-42
2021/10/10 08:53:24;;;;;;;1999.90;999.90;;;;;;;11.73;100.00;100142.34;4976645;28;20034;-42
2021/10/10 08:55:51;;;;;;;1999.90;999.90;;;;;;;11.73;100.00;100136.16;4976623;28;20031;-42
2021/10/10 08:58:21;;;;;;;1999.90;999.90;;;;;;;11.75;100.00;100123.41;4976834;28;20062;-42
2021/10/10 09:01:04;;;;;;;1999.90;999.90;;;;;;;11.71;100.00;100125.72;4976554;28;20092;-42
2021/10/10 09:03:29;;;;;;;1999.90;999.90;;;;;;;11.82;100.00;100131.25;4976158;28;20055;-42
2021/10/10 09:05:56;;;;;;;1999.90;999.90;;;;;;;11.82;100.00;100126.72;4976521;28;20078;-42
2021/10/10 09:08:23;;;;;;;1999.90;999.90;;;;;;;11.72;100.00;100127.34;4976671;28;20467;-42
2021/10/10 09:11:00;;;;;;;1999.90;999.90;;;;;;;11.88;100.00;100124.97;4976337;28;20030;-42
2021/10/10 09:13:33;;;;;;;1999.90;999.90;;;;;;;11.95;100.00;100128.31;4976642;28;20031;-42
2021/10/10 09:15:59;;;;;;;1999.90;999.90;;;;;;;11.86;100.00;100129.72;4976761;28;20035;-42
2021/10/10 09:18:38;;;;;;;1999.90;999.90;;;;;;;11.90;100.00;100120.97;4975083;28;20030;-43
2021/10/10 09:21:18;;;;;;;1999.90;999.90;;;;;;;11.88;100.00;100127.63;4976947;28;20393;-42
2021/10/10 09:23:53;;;;;;;1999.90;999.90;;;;;;;11.90;100.00;100114.84;4976108;28;20035;-42
2021/10/10 09:26:19;;;;;;;1999.90;999.90;;;;;;;11.93;100.00;100122.41;4976008;28;20048;-43
2021/10/10 09:28:47;;;;;;;1999.90;999.90;;;;;;;11.93;100.00;100124.22;4974836;28;20030;-43
2021/10/10 09:31:13;;;;;;;1999.90;999.90;;;;;;;11.97;100.00;100120.06;4975966;28;20495;-42
2021/10/10 09:33:52;;;;;;;1999.90;999.90;;;;;;;11.80;100.00;100118.13;4976027;28;20038;-42
2021/10/10 09:36:22;;;;;;;1999.90;999.90;;;;;;;11.89;100.00;100116.72;4975902;28;20500;-42
2021/10/10 09:41:54;;;;;;;1999.90;999.90;;;;;;;11.95;100.00;100125.66;4966033;28;20062;-42
2021/10/10 09:44:23;;;;;;;1999.90;999.90;;;;;;;11.95;100.00;100122.97;4975793;28;20035;-42
2021/10/10 09:46:50;;;;;;;1999.90;999.90;;;;;;;12.01;100.00;100124.66;4975586;28;20031;-42
2021/10/10 09:49:34;;;;;;;1999.90;999.90;;;;;;;12.01;100.00;100130.00;4975666;28;20030;-42
2021/10/10 09:52:20;;;;;;;1999.90;999.90;;;;;;;12.08;100.00;100117.31;4976248;28;20031;-42
2021/10/10 09:54:59;;;;;;;1999.90;999.90;;;;;;;11.99;100.00;100112.59;4974905;28;20030;-42
2021/10/10 09:57:27;;;;;;;1999.90;999.90;;;;;;;12.04;100.00;100102.81;4975461;28;20081;-42
2021/10/10 09:59:54;;;;;;;1999.90;999.90;;;;;;;12.13;100.00;100110.41;4976213;28;20122;-42
2021/10/10 10:02:42;;;;;;;1999.90;999.90;;;;;;;12.24;100.00;100113.00;4975059;28;20035;-42
2021/10/10 10:05:22;;;;;;;1999.90;999.90;;;;;;;12.13;100.00;100105.06;4975391;28;20035;-42
2021/10/10 10:07:48;;;;;;;1999.90;999.90;;;;;;;12.20;100.00;100117.22;4975356;28;20577;-42
2021/10/10 10:10:14;;;;;;;1999.90;999.90;;;;;;;12.28;100.00;100123.22;4975392;28;20035;-42
2021/10/10 10:12:39;;;;;;;1999.90;999.90;;;;;;;12.22;100.00;100123.13;4975624;28;20038;-43
2021/10/10 10:15:06;;;;;;;1999.90;999.90;;;;;;;12.22;100.00;100127.66;4975261;28;20482;-42
2021/10/10 10:17:34;;;;;;;1999.90;999.90;;;;;;;12.14;100.00;100128.88;4975493;28;20035;-42
2021/10/10 10:20:03;;;;;;;1999.90;999.90;;;;;;;12.13;100.00;100135.28;4975156;28;20069;-42
2021/10/10 10:22:35;;;;;;;1999.90;999.90;;;;;;;12.24;100.00;100130.88;4975285;28;20042;-42
2021/10/10 10:25:03;;;;;;;1999.90;999.90;;;;;;;12.23;100.00;100137.28;4975390;28;20466;-42
2021/10/10 10:27:29;;;;;;;1999.90;999.90;;;;;;;12.08;100.00;100138.69;4975212;28;20027;-42
2021/10/10 10:29:57;;;;;;;1999.90;999.90;;;;;;;12.26;100.00;100142.16;4975293;28;20050;-42
2021/10/10 10:32:24;;;;;;;1999.90;999.90;;;;;;;12.25;100.00;100133.31;4975240;28;20027;-43
2021/10/10 10:35:01;;;;;;;1999.90;999.90;;;;;;;12.17;100.00;100127.56;4974810;28;20077;-42
2021/10/10 10:37:42;;;;;;;1999.90;999.90;;;;;;;11.91;100.00;100121.81;4974723;28;20025;-42
2021/10/10 10:40:20;;;;;;;1999.90;999.90;;;;;;;11.99;100.00;100128.63;4974820;28;20035;-42
2021/10/10 10:42:49;;;;;;;1999.90;999.90;;;;;;;11.95;100.00;100120.31;4974649;28;20045;-42
2021/10/10 10:45:29;;;;;;;1999.90;999.90;;;;;;;11.99;100.00;100121.41;4974665;28;20086;-42
2021/10/10 10:47:57;;;;;;;1999.90;999.90;;;;;;;12.14;100.00;100131.56;4974512;28;20023;-42
2021/10/10 10:50:24;;;;;;;1999.90;999.90;;;;;;;12.25;100.00;100133.31;4974857;28;20109;-42
2021/10/10 10:53:11;;;;;;;1999.90;999.90;;;;;;;12.28;100.00;100131.22;4974328;28;20041;-42